sensor_id;sensor_type;location;lat;lon;timestamp;P1;durP1;ratioP1;P2;durP2;ratioP2
62724;SDS011;49026;52.600;4.694;2023-02-07T00:01:34;34.08;;;11.65;;
62724;SDS011;49026;52.600;4.694;2023-02-07T00:04:02;32.55;;;9.88;;
62724;SDS011;49026;52.600;4.694;2023-02-07T00:06:29;20.38;;;9.48;;
62724;SDS011;49026;52.600;4.694;2023-02-07T00:08:59;23.92;;;9.73;;
62724;SDS011;49026;52.600;4.694;2023-02-07T00:11:29;27.50;;;9.23;;
62724;SDS011;49026;52.600;4.694;2023-02-07T00:13:55;27.50;;;9.10;;
62724;SDS011;49026;52.600;4.694;2023-02-07T00:16:22;21.98;;;9.85;;
62724;SDS011;49026;52.600;4.694;2023-02-07T00:18:50;19.13;;;8.90;;
62724;SDS011;49026;52.600;4.694;2023-02-07T00:21:17;22.05;;;9.75;;
62724;SDS011;49026;52.600;4.694;2023-02-07T00:23:44;24.95;;;9.10;;
62724;SDS011;49026;52.600;4.694;2023-02-07T00:26:13;28.83;;;10.25;;
62724;SDS011;49026;52.600;4.694;2023-02-07T00:28:45;22.88;;;10.50;;
62724;SDS011;49026;52.600;4.694;2023-02-07T00:31:12;21.83;;;9.30;;
62724;SDS011;49026;52.600;4.694;2023-02-07T00:33:40;26.70;;;9.02;;
62724;SDS011;49026;52.600;4.694;2023-02-07T00:36:08;26.15;;;12.18;;
62724;SDS011;49026;52.600;4.694;2023-02-07T00:38:36;29.65;;;11.48;;
62724;SDS011;49026;52.600;4.694;2023-02-07T00:41:01;19.55;;;9.07;;
62724;SDS011;49026;52.600;4.694;2023-02-07T00:43:27;22.17;;;10.10;;
62724;SDS011;49026;52.600;4.694;2023-02-07T00:45:54;17.90;;;9.45;;
62724;SDS011;49026;52.600;4.694;2023-02-07T00:48:19;30.70;;;11.20;;
62724;SDS011;49026;52.600;4.694;2023-02-07T00:50:45;34.92;;;10.73;;
62724;SDS011;49026;52.600;4.694;2023-02-07T00:53:14;35.42;;;12.90;;
62724;SDS011;49026;52.600;4.694;2023-02-07T00:55:40;22.75;;;9.38;;
62724;SDS011;49026;52.600;4.694;2023-02-07T00:58:05;21.83;;;8.52;;
62724;SDS011;49026;52.600;4.694;2023-02-07T01:00:33;41.90;;;10.95;;
62724;SDS011;49026;52.600;4.694;2023-02-07T01:05:25;18.20;;;8.20;;
62724;SDS011;49026;52.600;4.694;2023-02-07T01:07:51;12.90;;;7.80;;
62724;SDS011;49026;52.600;4.694;2023-02-07T01:10:16;26.90;;;9.43;;
62724;SDS011;49026;52.600;4.694;2023-02-07T01:12:42;15.65;;;8.50;;
62724;SDS011;49026;52.600;4.694;2023-02-07T01:15:07;19.48;;;8.32;;
62724;SDS011;49026;52.600;4.694;2023-02-07T01:17:32;23.38;;;10.63;;
62724;SDS011;49026;52.600;4.694;2023-02-07T01:20:01;21.65;;;9.18;;
62724;SDS011;49026;52.600;4.694;2023-02-07T01:22:26;25.67;;;9.45;;
62724;SDS011;49026;52.600;4.694;2023-02-07T01:24:52;17.77;;;8.10;;
62724;SDS011;49026;52.600;4.694;2023-02-07T01:27:22;24.42;;;8.43;;
62724;SDS011;49026;52.600;4.694;2023-02-07T01:29:48;21.77;;;9.20;;
62724;SDS011;49026;52.600;4.694;2023-02-07T01:32:14;22.63;;;9.45;;
62724;SDS011;49026;52.600;4.694;2023-02-07T01:34:39;30.80;;;10.43;;
62724;SDS011;49026;52.600;4.694;2023-02-07T01:37:04;20.77;;;9.57;;
62724;SDS011;49026;52.600;4.694;2023-02-07T01:39:30;23.05;;;9.07;;
62724;SDS011;49026;52.600;4.694;2023-02-07T01:41:57;21.30;;;9.65;;
62724;SDS011;49026;52.600;4.694;2023-02-07T01:46:51;21.48;;;10.13;;
62724;SDS011;49026;52.600;4.694;2023-02-07T01:49:20;25.20;;;9.48;;
62724;SDS011;49026;52.600;4.694;2023-02-07T01:51:58;13.63;;;9.05;;
62724;SDS011;49026;52.600;4.694;2023-02-07T01:54:27;20.40;;;9.38;;
62724;SDS011;49026;52.600;4.694;2023-02-07T01:56:58;15.70;;;7.55;;
62724;SDS011;49026;52.600;4.694;2023-02-07T02:01:55;18.67;;;6.95;;
62724;SDS011;49026;52.600;4.694;2023-02-07T02:04:25;14.93;;;7.47;;
62724;SDS011;49026;52.600;4.694;2023-02-07T02:06:51;15.27;;;8.18;;
62724;SDS011;49026;52.600;4.694;2023-02-07T02:09:17;24.15;;;9.13;;
62724;SDS011;49026;52.600;4.694;2023-02-07T02:11:59;23.40;;;7.97;;
62724;SDS011;49026;52.600;4.694;2023-02-07T02:28:21;156.60;;;13.30;;
62724;SDS011;49026;52.600;4.694;2023-02-07T02:42:32;61.60;;;10.95;;
62724;SDS011;49026;52.600;4.694;2023-02-07T02:44:53;127.35;;;13.40;;
62724;SDS011;49026;52.600;4.694;2023-02-07T02:47:22;58.88;;;11.75;;
62724;SDS011;49026;52.600;4.694;2023-02-07T02:49:50;93.53;;;11.10;;
62724;SDS011;49026;52.600;4.694;2023-02-07T02:52:16;64.43;;;10.40;;
62724;SDS011;49026;52.600;4.694;2023-02-07T02:54:41;51.60;;;9.82;;
62724;SDS011;49026;52.600;4.694;2023-02-07T03:11:22;56.95;;;5.63;;
62724;SDS011;49026;52.600;4.694;2023-02-07T03:13:59;102.75;;;7.40;;
62724;SDS011;49026;52.600;4.694;2023-02-07T03:16:40;19.25;;;5.07;;
62724;SDS011;49026;52.600;4.694;2023-02-07T03:19:13;73.97;;;5.93;;
62724;SDS011;49026;52.600;4.694;2023-02-07T03:24:21;45.55;;;7.22;;
62724;SDS011;49026;52.600;4.694;2023-02-07T03:26:52;106.60;;;7.85;;
62724;SDS011;49026;52.600;4.694;2023-02-07T03:29:21;28.65;;;5.43;;
62724;SDS011;49026;52.600;4.694;2023-02-07T03:31:49;26.48;;;6.13;;
62724;SDS011;49026;52.600;4.694;2023-02-07T03:34:22;30.98;;;6.20;;
62724;SDS011;49026;52.600;4.694;2023-02-07T03:36:54;14.57;;;6.45;;
62724;SDS011;49026;52.600;4.694;2023-02-07T03:39:27;16.90;;;6.00;;
62724;SDS011;49026;52.600;4.694;2023-02-07T03:42:15;26.23;;;6.03;;
62724;SDS011;49026;52.600;4.694;2023-02-07T03:44:44;17.65;;;5.70;;
62724;SDS011;49026;52.600;4.694;2023-02-07T03:47:11;23.33;;;4.70;;
62724;SDS011;49026;52.600;4.694;2023-02-07T03:49:36;10.50;;;5.72;;
62724;SDS011;49026;52.600;4.694;2023-02-07T03:52:01;29.73;;;5.78;;
62724;SDS011;49026;52.600;4.694;2023-02-07T03:54:27;17.42;;;6.28;;
62724;SDS011;49026;52.600;4.694;2023-02-07T03:56:52;10.75;;;5.18;;
62724;SDS011;49026;52.600;4.694;2023-02-07T03:59:18;8.70;;;5.78;;
62724;SDS011;49026;52.600;4.694;2023-02-07T04:01:45;8.85;;;5.85;;
62724;SDS011;49026;52.600;4.694;2023-02-07T04:04:10;13.30;;;7.80;;
62724;SDS011;49026;52.600;4.694;2023-02-07T04:06:36;13.52;;;6.22;;
62724;SDS011;49026;52.600;4.694;2023-02-07T04:09:02;9.45;;;6.18;;
62724;SDS011;49026;52.600;4.694;2023-02-07T04:11:30;9.90;;;6.00;;
62724;SDS011;49026;52.600;4.694;2023-02-07T04:13:55;12.98;;;7.75;;
62724;SDS011;49026;52.600;4.694;2023-02-07T04:16:21;14.32;;;7.43;;
62724;SDS011;49026;52.600;4.694;2023-02-07T04:18:46;9.25;;;5.78;;
62724;SDS011;49026;52.600;4.694;2023-02-07T04:21:11;11.50;;;7.57;;
62724;SDS011;49026;52.600;4.694;2023-02-07T04:23:37;12.57;;;7.10;;
62724;SDS011;49026;52.600;4.694;2023-02-07T04:26:02;8.70;;;6.20;;
62724;SDS011;49026;52.600;4.694;2023-02-07T04:28:30;7.93;;;5.55;;
62724;SDS011;49026;52.600;4.694;2023-02-07T04:30:56;10.55;;;6.60;;
62724;SDS011;49026;52.600;4.694;2023-02-07T04:33:23;21.15;;;5.63;;
62724;SDS011;49026;52.600;4.694;2023-02-07T04:35:53;6.88;;;4.25;;
62724;SDS011;49026;52.600;4.694;2023-02-07T04:38:20;61.25;;;6.45;;
62724;SDS011;49026;52.600;4.694;2023-02-07T04:40:47;21.90;;;6.88;;
62724;SDS011;49026;52.600;4.694;2023-02-07T04:43:13;20.95;;;3.17;;
62724;SDS011;49026;52.600;4.694;2023-02-07T04:45:41;41.97;;;7.20;;
62724;SDS011;49026;52.600;4.694;2023-02-07T04:48:09;54.70;;;7.13;;
62724;SDS011;49026;52.600;4.694;2023-02-07T04:50:34;80.72;;;8.90;;
62724;SDS011;49026;52.600;4.694;2023-02-07T04:52:59;34.17;;;6.50;;
62724;SDS011;49026;52.600;4.694;2023-02-07T04:55:24;57.08;;;7.53;;
62724;SDS011;49026;52.600;4.694;2023-02-07T04:57:52;93.30;;;8.50;;
62724;SDS011;49026;52.600;4.694;2023-02-07T05:00:17;62.50;;;6.80;;
62724;SDS011;49026;52.600;4.694;2023-02-07T05:02:46;37.97;;;7.40;;
62724;SDS011;49026;52.600;4.694;2023-02-07T05:05:11;121.07;;;9.15;;
62724;SDS011;49026;52.600;4.694;2023-02-07T05:07:39;65.68;;;4.72;;
62724;SDS011;49026;52.600;4.694;2023-02-07T05:10:04;17.80;;;3.55;;
62724;SDS011;49026;52.600;4.694;2023-02-07T05:12:30;57.03;;;4.80;;
62724;SDS011;49026;52.600;4.694;2023-02-07T05:14:55;26.02;;;2.83;;
62724;SDS011;49026;52.600;4.694;2023-02-07T05:17:20;1.48;;;1.38;;
62724;SDS011;49026;52.600;4.694;2023-02-07T05:19:50;6.90;;;3.67;;
62724;SDS011;49026;52.600;4.694;2023-02-07T05:22:16;1.85;;;1.13;;
62724;SDS011;49026;52.600;4.694;2023-02-07T05:24:41;4.38;;;2.15;;
62724;SDS011;49026;52.600;4.694;2023-02-07T05:27:07;14.30;;;3.97;;
62724;SDS011;49026;52.600;4.694;2023-02-07T05:29:33;18.10;;;4.55;;
62724;SDS011;49026;52.600;4.694;2023-02-07T05:32:01;9.98;;;4.72;;
62724;SDS011;49026;52.600;4.694;2023-02-07T05:34:44;4.05;;;2.67;;
62724;SDS011;49026;52.600;4.694;2023-02-07T05:37:12;17.00;;;4.30;;
62724;SDS011;49026;52.600;4.694;2023-02-07T05:39:37;11.50;;;4.15;;
62724;SDS011;49026;52.600;4.694;2023-02-07T05:42:03;15.75;;;3.88;;
62724;SDS011;49026;52.600;4.694;2023-02-07T05:44:31;60.90;;;5.53;;
62724;SDS011;49026;52.600;4.694;2023-02-07T05:46:56;55.40;;;6.13;;
62724;SDS011;49026;52.600;4.694;2023-02-07T05:49:22;8.80;;;4.15;;
62724;SDS011;49026;52.600;4.694;2023-02-07T05:51:47;31.02;;;4.70;;
62724;SDS011;49026;52.600;4.694;2023-02-07T05:54:12;8.10;;;4.93;;
62724;SDS011;49026;52.600;4.694;2023-02-07T05:56:37;22.60;;;4.15;;
62724;SDS011;49026;52.600;4.694;2023-02-07T05:59:03;51.08;;;5.85;;
62724;SDS011;49026;52.600;4.694;2023-02-07T06:01:28;9.60;;;5.05;;
62724;SDS011;49026;52.600;4.694;2023-02-07T06:03:53;30.67;;;5.20;;
62724;SDS011;49026;52.600;4.694;2023-02-07T06:06:19;17.90;;;4.80;;
62724;SDS011;49026;52.600;4.694;2023-02-07T06:08:44;11.05;;;5.85;;
62724;SDS011;49026;52.600;4.694;2023-02-07T06:11:09;8.82;;;4.70;;
62724;SDS011;49026;52.600;4.694;2023-02-07T06:13:34;8.38;;;5.70;;
62724;SDS011;49026;52.600;4.694;2023-02-07T06:16:00;19.50;;;6.63;;
62724;SDS011;49026;52.600;4.694;2023-02-07T06:18:25;22.88;;;4.90;;
62724;SDS011;49026;52.600;4.694;2023-02-07T06:20:50;9.88;;;4.75;;
62724;SDS011;49026;52.600;4.694;2023-02-07T06:23:16;9.68;;;6.05;;
62724;SDS011;49026;52.600;4.694;2023-02-07T06:25:44;16.50;;;6.40;;
62724;SDS011;49026;52.600;4.694;2023-02-07T06:28:09;16.70;;;8.02;;
62724;SDS011;49026;52.600;4.694;2023-02-07T06:30:34;211.70;;;14.73;;
62724;SDS011;49026;52.600;4.694;2023-02-07T06:32:59;14.23;;;7.50;;
62724;SDS011;49026;52.600;4.694;2023-02-07T06:35:25;17.92;;;7.53;;
62724;SDS011;49026;52.600;4.694;2023-02-07T06:37:53;94.10;;;10.68;;
62724;SDS011;49026;52.600;4.694;2023-02-07T06:40:18;17.00;;;7.60;;
62724;SDS011;49026;52.600;4.694;2023-02-07T06:42:43;14.00;;;7.20;;
62724;SDS011;49026;52.600;4.694;2023-02-07T06:45:09;26.23;;;6.88;;
62724;SDS011;49026;52.600;4.694;2023-02-07T06:47:34;51.30;;;7.40;;
62724;SDS011;49026;52.600;4.694;2023-02-07T06:50:00;14.20;;;5.00;;
62724;SDS011;49026;52.600;4.694;2023-02-07T06:52:27;17.17;;;7.05;;
62724;SDS011;49026;52.600;4.694;2023-02-07T06:54:52;28.90;;;6.88;;
62724;SDS011;49026;52.600;4.694;2023-02-07T06:57:18;16.35;;;7.95;;
62724;SDS011;49026;52.600;4.694;2023-02-07T06:59:43;19.58;;;8.60;;
62724;SDS011;49026;52.600;4.694;2023-02-07T07:02:09;17.55;;;9.48;;
62724;SDS011;49026;52.600;4.694;2023-02-07T07:04:36;15.98;;;8.32;;
62724;SDS011;49026;52.600;4.694;2023-02-07T07:07:04;25.52;;;7.57;;
62724;SDS011;49026;52.600;4.694;2023-02-07T07:09:30;19.98;;;6.82;;
62724;SDS011;49026;52.600;4.694;2023-02-07T07:11:55;16.83;;;7.57;;
62724;SDS011;49026;52.600;4.694;2023-02-07T07:14:22;11.85;;;6.47;;
62724;SDS011;49026;52.600;4.694;2023-02-07T07:16:47;20.17;;;7.22;;
62724;SDS011;49026;52.600;4.694;2023-02-07T07:19:13;14.32;;;7.38;;
62724;SDS011;49026;52.600;4.694;2023-02-07T07:21:38;18.25;;;7.38;;
62724;SDS011;49026;52.600;4.694;2023-02-07T07:24:04;22.05;;;8.10;;
62724;SDS011;49026;52.600;4.694;2023-02-07T07:26:29;19.13;;;7.93;;
62724;SDS011;49026;52.600;4.694;2023-02-07T07:28:54;17.45;;;8.73;;
62724;SDS011;49026;52.600;4.694;2023-02-07T07:31:24;23.67;;;9.60;;
62724;SDS011;49026;52.600;4.694;2023-02-07T07:33:49;28.67;;;10.70;;
62724;SDS011;49026;52.600;4.694;2023-02-07T07:36:14;25.75;;;9.75;;
62724;SDS011;49026;52.600;4.694;2023-02-07T07:38:40;22.25;;;9.95;;
62724;SDS011;49026;52.600;4.694;2023-02-07T07:41:07;12.68;;;7.60;;
62724;SDS011;49026;52.600;4.694;2023-02-07T07:43:33;24.73;;;10.48;;
62724;SDS011;49026;52.600;4.694;2023-02-07T07:45:58;24.52;;;9.25;;
62724;SDS011;49026;52.600;4.694;2023-02-07T07:48:26;22.50;;;10.05;;
62724;SDS011;49026;52.600;4.694;2023-02-07T07:50:52;27.40;;;12.30;;
62724;SDS011;49026;52.600;4.694;2023-02-07T07:53:18;20.13;;;10.00;;
62724;SDS011;49026;52.600;4.694;2023-02-07T07:55:51;22.02;;;8.30;;
62724;SDS011;49026;52.600;4.694;2023-02-07T07:58:17;36.78;;;11.30;;
62724;SDS011;49026;52.600;4.694;2023-02-07T08:00:43;26.20;;;10.65;;
62724;SDS011;49026;52.600;4.694;2023-02-07T08:03:09;24.00;;;10.50;;
62724;SDS011;49026;52.600;4.694;2023-02-07T08:05:35;24.20;;;11.13;;
62724;SDS011;49026;52.600;4.694;2023-02-07T08:08:03;23.85;;;10.30;;
62724;SDS011;49026;52.600;4.694;2023-02-07T08:10:28;34.63;;;13.35;;
62724;SDS011;49026;52.600;4.694;2023-02-07T08:12:53;23.33;;;12.02;;
62724;SDS011;49026;52.600;4.694;2023-02-07T08:15:21;27.85;;;13.10;;
62724;SDS011;49026;52.600;4.694;2023-02-07T08:17:46;32.28;;;14.95;;
62724;SDS011;49026;52.600;4.694;2023-02-07T08:20:16;26.60;;;14.15;;
62724;SDS011;49026;52.600;4.694;2023-02-07T08:22:41;35.83;;;13.52;;
62724;SDS011;49026;52.600;4.694;2023-02-07T08:25:07;28.73;;;12.52;;
62724;SDS011;49026;52.600;4.694;2023-02-07T08:27:35;35.45;;;13.02;;
62724;SDS011;49026;52.600;4.694;2023-02-07T08:30:01;27.58;;;12.57;;
62724;SDS011;49026;52.600;4.694;2023-02-07T08:32:27;29.75;;;12.25;;
62724;SDS011;49026;52.600;4.694;2023-02-07T08:34:53;28.55;;;12.32;;
62724;SDS011;49026;52.600;4.694;2023-02-07T08:37:19;24.30;;;12.20;;
62724;SDS011;49026;52.600;4.694;2023-02-07T08:39:44;26.13;;;11.43;;
62724;SDS011;49026;52.600;4.694;2023-02-07T08:42:12;31.33;;;12.23;;
62724;SDS011;49026;52.600;4.694;2023-02-07T08:44:37;25.65;;;11.73;;
62724;SDS011;49026;52.600;4.694;2023-02-07T08:47:05;28.67;;;11.77;;
62724;SDS011;49026;52.600;4.694;2023-02-07T08:49:32;27.95;;;12.35;;
62724;SDS011;49026;52.600;4.694;2023-02-07T08:51:57;25.35;;;12.93;;
62724;SDS011;49026;52.600;4.694;2023-02-07T08:54:23;22.88;;;11.93;;
62724;SDS011;49026;52.600;4.694;2023-02-07T08:56:48;30.95;;;13.20;;
62724;SDS011;49026;52.600;4.694;2023-02-07T08:59:13;30.20;;;13.48;;
62724;SDS011;49026;52.600;4.694;2023-02-07T09:01:39;29.25;;;13.18;;
62724;SDS011;49026;52.600;4.694;2023-02-07T09:04:04;29.85;;;14.00;;
62724;SDS011;49026;52.600;4.694;2023-02-07T09:06:32;30.95;;;12.20;;
62724;SDS011;49026;52.600;4.694;2023-02-07T09:08:57;30.27;;;13.70;;
62724;SDS011;49026;52.600;4.694;2023-02-07T09:11:23;29.30;;;14.85;;
62724;SDS011;49026;52.600;4.694;2023-02-07T09:13:48;26.00;;;13.18;;
62724;SDS011;49026;52.600;4.694;2023-02-07T09:16:14;31.98;;;17.05;;
62724;SDS011;49026;52.600;4.694;2023-02-07T09:18:39;35.92;;;15.75;;
62724;SDS011;49026;52.600;4.694;2023-02-07T09:21:05;32.17;;;14.40;;
62724;SDS011;49026;52.600;4.694;2023-02-07T09:23:31;34.85;;;16.70;;
62724;SDS011;49026;52.600;4.694;2023-02-07T09:26:00;39.75;;;16.75;;
62724;SDS011;49026;52.600;4.694;2023-02-07T09:28:27;36.42;;;17.48;;
62724;SDS011;49026;52.600;4.694;2023-02-07T09:30:53;33.63;;;15.82;;
62724;SDS011;49026;52.600;4.694;2023-02-07T09:33:18;33.53;;;17.90;;
62724;SDS011;49026;52.600;4.694;2023-02-07T09:35:49;29.70;;;14.88;;
62724;SDS011;49026;52.600;4.694;2023-02-07T09:38:19;41.33;;;17.23;;
62724;SDS011;49026;52.600;4.694;2023-02-07T09:40:46;32.72;;;14.35;;
62724;SDS011;49026;52.600;4.694;2023-02-07T09:45:51;34.25;;;15.27;;
62724;SDS011;49026;52.600;4.694;2023-02-07T09:48:24;28.05;;;14.38;;
62724;SDS011;49026;52.600;4.694;2023-02-07T09:50:56;28.42;;;13.75;;
62724;SDS011;49026;52.600;4.694;2023-02-07T09:53:35;27.90;;;13.40;;
62724;SDS011;49026;52.600;4.694;2023-02-07T09:56:03;32.08;;;14.95;;
62724;SDS011;49026;52.600;4.694;2023-02-07T09:58:43;25.63;;;13.77;;
62724;SDS011;49026;52.600;4.694;2023-02-07T10:01:33;28.08;;;13.63;;
62724;SDS011;49026;52.600;4.694;2023-02-07T10:06:47;30.65;;;14.15;;
62724;SDS011;49026;52.600;4.694;2023-02-07T10:09:24;32.92;;;14.45;;
62724;SDS011;49026;52.600;4.694;2023-02-07T10:12:03;30.50;;;14.27;;
62724;SDS011;49026;52.600;4.694;2023-02-07T10:20:45;21.75;;;12.73;;
62724;SDS011;49026;52.600;4.694;2023-02-07T10:25:54;33.42;;;13.23;;
62724;SDS011;49026;52.600;4.694;2023-02-07T10:31:13;31.77;;;15.27;;
62724;SDS011;49026;52.600;4.694;2023-02-07T10:33:42;35.38;;;15.85;;
62724;SDS011;49026;52.600;4.694;2023-02-07T10:36:13;27.05;;;15.40;;
62724;SDS011;49026;52.600;4.694;2023-02-07T10:38:50;34.05;;;14.68;;
62724;SDS011;49026;52.600;4.694;2023-02-07T10:41:33;31.25;;;14.32;;
62724;SDS011;49026;52.600;4.694;2023-02-07T10:44:04;30.67;;;15.63;;
62724;SDS011;49026;52.600;4.694;2023-02-07T10:46:33;30.40;;;13.82;;
62724;SDS011;49026;52.600;4.694;2023-02-07T10:49:01;26.58;;;13.98;;
62724;SDS011;49026;52.600;4.694;2023-02-07T10:51:38;30.20;;;14.90;;
62724;SDS011;49026;52.600;4.694;2023-02-07T10:54:09;30.55;;;14.05;;
62724;SDS011;49026;52.600;4.694;2023-02-07T10:56:45;24.77;;;14.38;;
62724;SDS011;49026;52.600;4.694;2023-02-07T11:03:10;34.25;;;14.30;;
62724;SDS011;49026;52.600;4.694;2023-02-07T11:07:40;29.73;;;14.32;;
62724;SDS011;49026;52.600;4.694;2023-02-07T11:10:31;28.48;;;14.75;;
62724;SDS011;49026;52.600;4.694;2023-02-07T11:12:59;25.75;;;12.70;;
62724;SDS011;49026;52.600;4.694;2023-02-07T11:16:10;23.05;;;13.48;;
62724;SDS011;49026;52.600;4.694;2023-02-07T11:18:41;27.85;;;13.52;;
62724;SDS011;49026;52.600;4.694;2023-02-07T11:23:58;22.88;;;12.38;;
62724;SDS011;49026;52.600;4.694;2023-02-07T11:26:53;27.65;;;13.02;;
62724;SDS011;49026;52.600;4.694;2023-02-07T11:29:19;28.58;;;13.82;;
62724;SDS011;49026;52.600;4.694;2023-02-07T11:31:47;23.33;;;12.48;;
62724;SDS011;49026;52.600;4.694;2023-02-07T11:36:52;23.75;;;13.55;;
62724;SDS011;49026;52.600;4.694;2023-02-07T11:39:18;24.40;;;12.70;;
62724;SDS011;49026;52.600;4.694;2023-02-07T11:41:53;22.33;;;12.05;;
62724;SDS011;49026;52.600;4.694;2023-02-07T11:44:26;27.92;;;12.65;;
62724;SDS011;49026;52.600;4.694;2023-02-07T11:46:57;22.73;;;12.52;;
62724;SDS011;49026;52.600;4.694;2023-02-07T11:49:31;27.63;;;12.10;;
62724;SDS011;49026;52.600;4.694;2023-02-07T11:52:07;22.30;;;11.18;;
62724;SDS011;49026;52.600;4.694;2023-02-07T11:54:33;24.90;;;11.60;;
62724;SDS011;49026;52.600;4.694;2023-02-07T11:57:02;22.70;;;11.43;;
62724;SDS011;49026;52.600;4.694;2023-02-07T11:59:44;24.38;;;12.15;;
62724;SDS011;49026;52.600;4.694;2023-02-07T12:02:24;26.77;;;12.25;;
62724;SDS011;49026;52.600;4.694;2023-02-07T12:04:53;23.75;;;11.20;;
62724;SDS011;49026;52.600;4.694;2023-02-07T12:07:23;18.35;;;9.05;;
62724;SDS011;49026;52.600;4.694;2023-02-07T12:15:07;18.17;;;9.68;;
62724;SDS011;49026;52.600;4.694;2023-02-07T12:17:52;17.92;;;9.32;;
62724;SDS011;49026;52.600;4.694;2023-02-07T12:20:20;19.80;;;10.93;;
62724;SDS011;49026;52.600;4.694;2023-02-07T12:22:52;17.60;;;8.80;;
62724;SDS011;49026;52.600;4.694;2023-02-07T12:25:39;14.50;;;8.95;;
62724;SDS011;49026;52.600;4.694;2023-02-07T12:29:05;22.27;;;9.55;;
62724;SDS011;49026;52.600;4.694;2023-02-07T12:31:17;16.60;;;9.50;;
62724;SDS011;49026;52.600;4.694;2023-02-07T12:34:07;21.65;;;9.40;;
62724;SDS011;49026;52.600;4.694;2023-02-07T12:36:47;22.25;;;9.70;;
62724;SDS011;49026;52.600;4.694;2023-02-07T12:39:20;29.23;;;10.48;;
62724;SDS011;49026;52.600;4.694;2023-02-07T12:42:04;18.08;;;9.65;;
62724;SDS011;49026;52.600;4.694;2023-02-07T12:44:33;16.15;;;8.50;;
62724;SDS011;49026;52.600;4.694;2023-02-07T12:47:18;16.17;;;8.70;;
62724;SDS011;49026;52.600;4.694;2023-02-07T12:50:02;17.23;;;8.27;;
62724;SDS011;49026;52.600;4.694;2023-02-07T12:52:46;17.83;;;8.02;;
62724;SDS011;49026;52.600;4.694;2023-02-07T13:00:42;16.48;;;7.50;;
62724;SDS011;49026;52.600;4.694;2023-02-07T13:03:47;14.65;;;7.00;;
62724;SDS011;49026;52.600;4.694;2023-02-07T13:06:31;17.13;;;7.55;;
62724;SDS011;49026;52.600;4.694;2023-02-07T13:09:25;17.52;;;7.38;;
62724;SDS011;49026;52.600;4.694;2023-02-07T13:12:16;12.20;;;6.55;;
62724;SDS011;49026;52.600;4.694;2023-02-07T13:17:48;18.40;;;7.20;;
62724;SDS011;49026;52.600;4.694;2023-02-07T13:22:57;11.98;;;5.90;;
62724;SDS011;49026;52.600;4.694;2023-02-07T13:25:26;11.95;;;6.57;;
62724;SDS011;49026;52.600;4.694;2023-02-07T13:27:55;16.23;;;6.97;;
62724;SDS011;49026;52.600;4.694;2023-02-07T13:30:24;10.63;;;5.45;;
62724;SDS011;49026;52.600;4.694;2023-02-07T13:32:53;11.52;;;5.45;;
62724;SDS011;49026;52.600;4.694;2023-02-07T13:35:39;9.00;;;4.75;;
62724;SDS011;49026;52.600;4.694;2023-02-07T13:38:19;10.00;;;4.88;;
62724;SDS011;49026;52.600;4.694;2023-02-07T13:40:55;13.73;;;5.78;;
62724;SDS011;49026;52.600;4.694;2023-02-07T13:57:21;9.98;;;5.45;;
62724;SDS011;49026;52.600;4.694;2023-02-07T14:00:26;13.85;;;5.72;;
62724;SDS011;49026;52.600;4.694;2023-02-07T14:02:55;13.98;;;6.47;;
62724;SDS011;49026;52.600;4.694;2023-02-07T14:05:32;14.18;;;6.00;;
62724;SDS011;49026;52.600;4.694;2023-02-07T14:08:00;13.38;;;6.18;;
62724;SDS011;49026;52.600;4.694;2023-02-07T14:10:48;11.02;;;5.68;;
62724;SDS011;49026;52.600;4.694;2023-02-07T14:13:19;13.23;;;5.65;;
62724;SDS011;49026;52.600;4.694;2023-02-07T14:16:05;11.35;;;5.30;;
62724;SDS011;49026;52.600;4.694;2023-02-07T14:21:03;7.50;;;4.10;;
62724;SDS011;49026;52.600;4.694;2023-02-07T14:24:32;10.63;;;4.90;;
62724;SDS011;49026;52.600;4.694;2023-02-07T14:31:54;12.95;;;6.35;;
62724;SDS011;49026;52.600;4.694;2023-02-07T14:37:53;12.23;;;6.63;;
62724;SDS011;49026;52.600;4.694;2023-02-07T14:40:25;13.75;;;7.68;;
62724;SDS011;49026;52.600;4.694;2023-02-07T14:45:30;15.10;;;7.20;;
62724;SDS011;49026;52.600;4.694;2023-02-07T14:47:57;15.23;;;7.07;;
62724;SDS011;49026;52.600;4.694;2023-02-07T14:50:27;16.73;;;7.03;;
62724;SDS011;49026;52.600;4.694;2023-02-07T14:52:57;15.75;;;7.57;;
62724;SDS011;49026;52.600;4.694;2023-02-07T14:56:11;14.48;;;7.47;;
62724;SDS011;49026;52.600;4.694;2023-02-07T14:58:23;14.35;;;8.13;;
62724;SDS011;49026;52.600;4.694;2023-02-07T15:01:08;15.93;;;7.03;;
62724;SDS011;49026;52.600;4.694;2023-02-07T15:03:36;14.95;;;7.80;;
62724;SDS011;49026;52.600;4.694;2023-02-07T15:06:15;18.77;;;7.55;;
62724;SDS011;49026;52.600;4.694;2023-02-07T15:08:53;15.52;;;8.27;;
62724;SDS011;49026;52.600;4.694;2023-02-07T15:11:23;13.98;;;7.57;;
62724;SDS011;49026;52.600;4.694;2023-02-07T15:13:50;13.52;;;7.45;;
62724;SDS011;49026;52.600;4.694;2023-02-07T15:16:22;13.65;;;7.57;;
62724;SDS011;49026;52.600;4.694;2023-02-07T15:18:54;13.85;;;6.82;;
62724;SDS011;49026;52.600;4.694;2023-02-07T15:21:22;13.20;;;7.20;;
62724;SDS011;49026;52.600;4.694;2023-02-07T15:23:59;14.93;;;7.00;;
62724;SDS011;49026;52.600;4.694;2023-02-07T15:26:29;10.77;;;5.40;;
62724;SDS011;49026;52.600;4.694;2023-02-07T15:28:59;14.13;;;6.88;;
62724;SDS011;49026;52.600;4.694;2023-02-07T15:31:29;14.77;;;7.50;;
62724;SDS011;49026;52.600;4.694;2023-02-07T15:33:55;15.70;;;7.72;;
62724;SDS011;49026;52.600;4.694;2023-02-07T15:36:36;12.60;;;7.25;;
62724;SDS011;49026;52.600;4.694;2023-02-07T15:39:06;13.82;;;4.70;;
62724;SDS011;49026;52.600;4.694;2023-02-07T15:41:38;14.07;;;7.07;;
62724;SDS011;49026;52.600;4.694;2023-02-07T15:49:36;11.38;;;5.85;;
62724;SDS011;49026;52.600;4.694;2023-02-07T15:54:53;12.10;;;6.65;;
62724;SDS011;49026;52.600;4.694;2023-02-07T15:57:24;13.35;;;6.70;;
62724;SDS011;49026;52.600;4.694;2023-02-07T15:59:53;13.60;;;6.07;;
62724;SDS011;49026;52.600;4.694;2023-02-07T16:02:21;17.08;;;6.85;;
62724;SDS011;49026;52.600;4.694;2023-02-07T16:05:07;12.70;;;5.83;;
62724;SDS011;49026;52.600;4.694;2023-02-07T16:07:39;16.15;;;6.45;;
62724;SDS011;49026;52.600;4.694;2023-02-07T16:10:30;10.48;;;6.38;;
62724;SDS011;49026;52.600;4.694;2023-02-07T16:15:35;12.95;;;6.47;;
62724;SDS011;49026;52.600;4.694;2023-02-07T16:18:02;14.43;;;6.45;;
62724;SDS011;49026;52.600;4.694;2023-02-07T16:20:31;12.38;;;7.47;;
62724;SDS011;49026;52.600;4.694;2023-02-07T16:23:00;12.85;;;7.40;;
62724;SDS011;49026;52.600;4.694;2023-02-07T16:25:28;12.80;;;6.75;;
62724;SDS011;49026;52.600;4.694;2023-02-07T16:27:58;10.45;;;4.97;;
62724;SDS011;49026;52.600;4.694;2023-02-07T16:30:26;10.23;;;6.20;;
62724;SDS011;49026;52.600;4.694;2023-02-07T16:32:54;11.32;;;5.03;;
62724;SDS011;49026;52.600;4.694;2023-02-07T16:35:21;14.25;;;6.50;;
62724;SDS011;49026;52.600;4.694;2023-02-07T16:37:51;9.40;;;5.05;;
62724;SDS011;49026;52.600;4.694;2023-02-07T16:40:20;14.80;;;7.60;;
62724;SDS011;49026;52.600;4.694;2023-02-07T16:42:52;9.13;;;5.07;;
62724;SDS011;49026;52.600;4.694;2023-02-07T16:45:20;12.43;;;6.32;;
62724;SDS011;49026;52.600;4.694;2023-02-07T16:47:49;15.57;;;7.65;;
62724;SDS011;49026;52.600;4.694;2023-02-07T16:50:24;18.20;;;10.27;;
62724;SDS011;49026;52.600;4.694;2023-02-07T16:52:53;13.80;;;8.05;;
62724;SDS011;49026;52.600;4.694;2023-02-07T16:55:21;14.00;;;5.53;;
62724;SDS011;49026;52.600;4.694;2023-02-07T16:57:48;19.88;;;9.52;;
62724;SDS011;49026;52.600;4.694;2023-02-07T17:00:14;19.15;;;9.48;;